createdAt,value
2022-12-18T00:01:34.764Z,37.20
2022-12-18T00:04:04.149Z,34.72
2022-12-18T00:06:31.132Z,36.45
2022-12-18T00:08:59.157Z,35.65
2022-12-18T00:11:28.655Z,35.22
2022-12-18T00:13:57.087Z,41.47
2022-12-18T00:16:25.648Z,38.25
2022-12-18T00:18:55.358Z,31.63
2022-12-18T00:21:22.303Z,41.90
2022-12-18T00:23:50.294Z,40.38
2022-12-18T00:26:23.327Z,36.77
2022-12-18T00:28:50.519Z,38.25
2022-12-18T00:31:20.501Z,36.10
2022-12-18T00:33:47.527Z,40.03
2022-12-18T00:36:18.627Z,36.58
2022-12-18T00:38:45.687Z,43.33
2022-12-18T00:41:14.403Z,40.63
2022-12-18T00:43:41.354Z,36.65
2022-12-18T00:46:08.161Z,39.60
2022-12-18T00:48:34.755Z,38.05
2022-12-18T00:51:01.143Z,41.60
2022-12-18T00:53:27.706Z,43.53
2022-12-18T00:55:54.164Z,35.33
2022-12-18T00:58:20.555Z,44.47
2022-12-18T01:00:47.187Z,33.85
2022-12-18T01:03:15.163Z,41.87
2022-12-18T01:05:43.068Z,39.20
2022-12-18T01:08:10.322Z,35.28
2022-12-18T01:10:36.758Z,37.33
2022-12-18T01:13:03.234Z,35.85
2022-12-18T01:15:29.719Z,37.87
2022-12-18T01:17:56.213Z,41.80
2022-12-18T01:20:22.648Z,47.30
2022-12-18T01:22:49.084Z,39.90
2022-12-18T01:25:15.547Z,35.53
2022-12-18T01:27:42.163Z,41.10
2022-12-18T01:30:09.042Z,31.35
2022-12-18T01:32:35.494Z,36.60
2022-12-18T01:35:01.919Z,38.67
2022-12-18T01:37:28.423Z,37.30
2022-12-18T01:39:55.576Z,29.87
2022-12-18T01:42:22.866Z,30.20
2022-12-18T01:45:17.276Z,37.85
2022-12-18T01:47:47.558Z,37.90
2022-12-18T01:50:28.103Z,39.88
2022-12-18T01:53:11.681Z,31.43
2022-12-18T01:55:46.298Z,35.72
2022-12-18T01:58:12.969Z,36.03
2022-12-18T02:00:39.677Z,38.50
2022-12-18T02:03:06.281Z,33.08
2022-12-18T02:05:58.376Z,33.97
2022-12-18T02:08:43.489Z,35.55
2022-12-18T02:11:38.696Z,35.33
2022-12-18T02:14:39.325Z,33.85
2022-12-18T02:17:30.643Z,36.53
2022-12-18T02:20:03.857Z,36.30
2022-12-18T02:22:45.813Z,29.67
2022-12-18T02:25:21.368Z,36.88
2022-12-18T02:27:50.235Z,31.45
2022-12-18T02:30:17.130Z,30.83
2022-12-18T02:32:49.567Z,28.47
2022-12-18T02:35:23.184Z,34.42
2022-12-18T02:37:50.162Z,32.08
2022-12-18T02:40:18.182Z,32.08
2022-12-18T02:42:44.656Z,28.83
2022-12-18T02:45:11.251Z,32.53
2022-12-18T02:47:40.059Z,32.50
2022-12-18T02:50:34.507Z,32.50
2022-12-18T02:53:28.644Z,26.95
2022-12-18T02:56:14.853Z,32.67
2022-12-18T02:59:09.595Z,30.97
2022-12-18T03:01:36.192Z,34.33
2022-12-18T03:04:09.065Z,30.52
2022-12-18T03:06:42.679Z,29.33
2022-12-18T03:09:18.625Z,32.72
2022-12-18T03:12:10.244Z,24.40
2022-12-18T03:14:39.187Z,24.48
2022-12-18T03:17:11.784Z,36.03
2022-12-18T03:19:40.220Z,28.38
2022-12-18T03:22:09.263Z,26.08
2022-12-18T03:24:39.891Z,24.87
2022-12-18T03:27:12.061Z,28.60
2022-12-18T03:29:43.498Z,31.52
2022-12-18T03:32:20.512Z,23.90
2022-12-18T03:34:50.829Z,24.42
2022-12-18T03:37:17.434Z,25.03
2022-12-18T03:39:43.904Z,25.85
2022-12-18T03:42:29.753Z,30.65
2022-12-18T03:45:20.808Z,27.75
2022-12-18T03:48:04.662Z,26.33
2022-12-18T03:50:59.187Z,22.20
2022-12-18T03:53:32.327Z,22.20
2022-12-18T03:56:01.147Z,23.98
2022-12-18T03:58:29.954Z,25.65
2022-12-18T04:01:00.589Z,22.55
2022-12-18T04:03:29.325Z,22.47
2022-12-18T04:05:57.710Z,24.20
2022-12-18T04:08:25.696Z,25.23
2022-12-18T04:10:52.326Z,21.00
2022-12-18T04:13:29.008Z,20.25
2022-12-18T04:15:55.485Z,19.90
2022-12-18T04:18:22.178Z,19.17
2022-12-18T04:20:48.530Z,26.00
2022-12-18T04:23:14.985Z,21.73
2022-12-18T04:25:41.642Z,24.20
2022-12-18T04:28:08.102Z,22.20
2022-12-18T04:30:34.606Z,25.55
2022-12-18T04:33:00.990Z,29.60
2022-12-18T04:35:27.679Z,23.98
2022-12-18T04:37:54.369Z,22.63
2022-12-18T04:40:20.747Z,20.87
2022-12-18T04:42:47.162Z,18.42
2022-12-18T04:45:13.845Z,17.60
2022-12-18T04:47:40.346Z,19.65
2022-12-18T04:50:07.203Z,17.90
2022-12-18T04:52:33.571Z,20.80
2022-12-18T04:54:59.984Z,20.65
2022-12-18T04:57:27.091Z,18.38
2022-12-18T04:59:53.472Z,16.17
2022-12-18T05:02:19.979Z,17.77
2022-12-18T05:04:46.581Z,12.63
2022-12-18T05:07:13.166Z,16.30
2022-12-18T05:09:39.598Z,16.90
2022-12-18T05:12:06.285Z,15.57
2022-12-18T05:14:32.742Z,16.58
2022-12-18T05:17:01.067Z,11.77
2022-12-18T05:19:27.826Z,13.98
2022-12-18T05:21:54.357Z,15.18
2022-12-18T05:24:20.793Z,17.75
2022-12-18T05:26:47.472Z,11.75
2022-12-18T05:29:14.161Z,20.33
2022-12-18T05:31:41.144Z,20.92
2022-12-18T05:34:09.533Z,14.68
2022-12-18T05:36:37.094Z,17.58
2022-12-18T05:39:03.768Z,12.60
2022-12-18T05:41:30.950Z,10.17
2022-12-18T05:43:57.656Z,18.10
2022-12-18T05:46:25.241Z,12.05
2022-12-18T05:48:52.113Z,17.17
2022-12-18T05:51:21.911Z,13.43
2022-12-18T05:53:49.169Z,15.57
2022-12-18T05:56:19.271Z,12.80
2022-12-18T05:58:46.060Z,12.10
2022-12-18T06:01:19.391Z,14.20
2022-12-18T06:03:46.546Z,17.05
2022-12-18T06:06:15.180Z,18.27
2022-12-18T06:08:46.170Z,11.80
2022-12-18T06:11:14.178Z,13.68
2022-12-18T06:13:40.937Z,15.75
2022-12-18T06:16:08.939Z,13.98
2022-12-18T06:18:38.971Z,16.23
2022-12-18T06:21:05.568Z,17.92
2022-12-18T06:23:31.972Z,14.30
2022-12-18T06:25:58.427Z,16.52
2022-12-18T06:28:24.833Z,14.23
2022-12-18T06:30:51.836Z,15.73
2022-12-18T06:33:18.371Z,14.77
2022-12-18T06:35:44.815Z,13.57
2022-12-18T06:38:11.316Z,14.20
2022-12-18T06:40:39.812Z,13.63
2022-12-18T06:43:07.394Z,14.80
2022-12-18T06:45:34.081Z,12.63
2022-12-18T06:48:01.115Z,11.93
2022-12-18T06:50:27.816Z,12.68
2022-12-18T06:52:54.331Z,13.93
2022-12-18T06:55:20.932Z,14.73
2022-12-18T06:57:47.396Z,16.00
2022-12-18T07:00:14.535Z,16.50
2022-12-18T07:02:41.632Z,12.18
2022-12-18T07:05:10.868Z,16.10
2022-12-18T07:07:37.923Z,11.43
2022-12-18T07:10:04.875Z,11.88
2022-12-18T07:12:31.318Z,13.68
2022-12-18T07:14:57.791Z,11.75
2022-12-18T07:17:24.373Z,15.75
2022-12-18T07:19:50.824Z,11.73
2022-12-18T07:22:17.355Z,10.45
2022-12-18T07:24:43.756Z,11.63
2022-12-18T07:27:10.128Z,14.38
2022-12-18T07:29:36.870Z,12.65
2022-12-18T07:32:04.589Z,12.97
2022-12-18T07:34:31.159Z,12.10
2022-12-18T07:36:57.583Z,12.52
2022-12-18T07:39:24.174Z,13.13
2022-12-18T07:42:10.544Z,12.45
2022-12-18T07:44:37.243Z,12.07
2022-12-18T07:47:06.653Z,13.13
2022-12-18T07:49:37.482Z,15.55
2022-12-18T07:52:04.091Z,10.85
2022-12-18T07:54:30.542Z,17.23
2022-12-18T07:56:56.990Z,13.03
2022-12-18T07:59:23.562Z,12.23
2022-12-18T08:01:50.004Z,11.98
2022-12-18T08:04:16.540Z,12.90
2022-12-18T08:06:47.601Z,13.93
2022-12-18T08:09:14.682Z,13.97
2022-12-18T08:11:41.298Z,16.45
2022-12-18T08:14:07.847Z,12.07
2022-12-18T08:16:34.413Z,11.90
2022-12-18T08:19:01.079Z,13.40
2022-12-18T08:21:30.104Z,15.50
2022-12-18T08:23:58.594Z,14.45
2022-12-18T08:26:27.987Z,13.63
2022-12-18T08:28:55.978Z,17.13
2022-12-18T08:31:23.451Z,14.88
2022-12-18T08:33:53.218Z,14.10
2022-12-18T08:36:20.956Z,16.25
2022-12-18T08:38:48.097Z,11.57
2022-12-18T08:41:16.790Z,12.13
2022-12-18T08:44:02.222Z,19.45
2022-12-18T08:46:35.127Z,11.20
2022-12-18T08:49:01.835Z,13.60
2022-12-18T08:51:29.264Z,14.38
2022-12-18T08:53:55.720Z,12.27
2022-12-18T08:56:22.128Z,13.48
2022-12-18T08:58:48.784Z,16.37
2022-12-18T09:01:15.377Z,17.55
2022-12-18T09:03:42.675Z,14.07
2022-12-18T09:06:09.363Z,16.92
2022-12-18T09:08:36.034Z,13.13
2022-12-18T09:11:02.462Z,17.60
2022-12-18T09:13:29.636Z,13.05
2022-12-18T09:15:56.667Z,13.20
2022-12-18T09:18:24.999Z,13.02
2022-12-18T09:20:53.330Z,13.88
2022-12-18T09:23:20.454Z,15.43
2022-12-18T09:25:46.862Z,15.55
2022-12-18T09:28:15.607Z,13.63
2022-12-18T09:30:44.499Z,15.95
2022-12-18T09:33:11.626Z,14.63
2022-12-18T09:35:40.783Z,11.07
2022-12-18T09:38:09.591Z,11.88
2022-12-18T09:40:40.830Z,15.30
2022-12-18T09:43:10.576Z,11.93
2022-12-18T09:45:43.967Z,15.00
2022-12-18T09:48:29.060Z,12.77
2022-12-18T09:51:02.643Z,13.50
2022-12-18T09:53:36.089Z,14.95
2022-12-18T09:56:05.588Z,13.77
2022-12-18T09:58:46.142Z,12.90
2022-12-18T10:01:24.018Z,12.03
2022-12-18T10:03:52.746Z,12.98
2022-12-18T10:06:45.442Z,14.75
2022-12-18T10:09:31.614Z,11.07
2022-12-18T10:12:07.679Z,12.23
2022-12-18T10:14:40.083Z,14.77
2022-12-18T10:17:36.652Z,15.18
2022-12-18T10:20:32.984Z,13.80
2022-12-18T10:23:09.060Z,16.08
2022-12-18T10:26:02.774Z,15.77
2022-12-18T10:28:32.210Z,13.00
2022-12-18T10:30:59.769Z,14.00
2022-12-18T10:33:30.880Z,12.70
2022-12-18T10:35:57.342Z,10.00
2022-12-18T10:38:31.683Z,15.10
2022-12-18T10:41:02.989Z,13.17
2022-12-18T10:43:33.356Z,13.07
2022-12-18T10:46:06.589Z,14.88
2022-12-18T10:48:54.821Z,14.25
2022-12-18T10:51:23.278Z,9.45
2022-12-18T10:54:24.981Z,11.50
2022-12-18T10:56:51.590Z,12.50
2022-12-18T10:59:19.100Z,12.57
2022-12-18T11:01:51.705Z,11.85
2022-12-18T11:04:21.731Z,12.00
2022-12-18T11:07:07.897Z,10.50
2022-12-18T11:09:39.333Z,13.93
2022-12-18T11:12:18.583Z,19.00
2022-12-18T11:14:56.927Z,12.68
2022-12-18T11:17:35.903Z,12.02
2022-12-18T11:20:07.911Z,8.50
2022-12-18T11:22:39.193Z,11.85
2022-12-18T11:25:32.689Z,12.32
2022-12-18T11:28:04.033Z,11.32
2022-12-18T11:30:32.902Z,11.70
2022-12-18T11:33:21.783Z,13.47
2022-12-18T11:35:53.609Z,12.80
2022-12-18T11:38:26.422Z,10.52
2022-12-18T11:41:01.618Z,12.60
2022-12-18T11:43:56.701Z,13.73
2022-12-18T11:46:31.545Z,11.93
2022-12-18T11:49:02.315Z,14.38
2022-12-18T11:51:46.030Z,12.93
2022-12-18T11:54:17.017Z,12.30
2022-12-18T11:56:50.743Z,12.15
2022-12-18T11:59:57.376Z,14.67
2022-12-18T12:02:39.918Z,11.85
2022-12-18T12:05:15.527Z,10.05
2022-12-18T12:08:13.035Z,10.27
2022-12-18T12:11:02.765Z,14.48
2022-12-18T12:13:51.010Z,11.93
2022-12-18T12:16:50.270Z,12.18
2022-12-18T12:19:45.212Z,11.90
2022-12-18T12:22:22.525Z,16.27
2022-12-18T12:25:13.156Z,15.65
2022-12-18T12:28:00.250Z,14.37
2022-12-18T12:30:52.764Z,14.80
2022-12-18T12:33:51.560Z,14.32
2022-12-18T12:36:47.087Z,11.55
2022-12-18T12:39:21.677Z,14.02
2022-12-18T12:42:07.427Z,13.97
2022-12-18T12:44:40.377Z,13.13
2022-12-18T12:47:21.589Z,13.07
2022-12-18T12:49:51.642Z,13.10
2022-12-18T12:52:48.547Z,11.50
2022-12-18T12:55:27.758Z,12.90
2022-12-18T12:57:59.363Z,10.63
2022-12-18T13:00:29.367Z,13.60
2022-12-18T13:03:37.844Z,14.20
2022-12-18T13:06:29.888Z,10.43
2022-12-18T13:09:00.575Z,12.63
2022-12-18T13:12:06.620Z,11.30
2022-12-18T13:14:37.209Z,13.43
2022-12-18T13:17:22.949Z,14.52
2022-12-18T13:20:04.345Z,13.05
2022-12-18T13:22:36.603Z,12.63
2022-12-18T13:25:04.176Z,13.70
2022-12-18T13:27:46.210Z,12.82
2022-12-18T13:30:32.310Z,15.65
2022-12-18T13:33:20.751Z,11.88
2022-12-18T13:35:47.552Z,14.60
2022-12-18T13:38:38.830Z,14.75
2022-12-18T13:41:24.853Z,13.32
2022-12-18T13:43:54.209Z,13.90
2022-12-18T13:46:25.267Z,13.40
2022-12-18T13:49:06.222Z,14.07
2022-12-18T13:51:34.888Z,12.07
2022-12-18T13:54:19.627Z,12.88
2022-12-18T13:56:48.077Z,14.32
2022-12-18T13:59:26.361Z,14.18
2022-12-18T14:01:58.757Z,12.23
2022-12-18T14:04:33.918Z,13.10
2022-12-18T14:07:11.745Z,13.05
2022-12-18T14:10:01.976Z,13.55
2022-12-18T14:12:57.766Z,12.75
2022-12-18T14:15:27.377Z,11.60
2022-12-18T14:17:58.087Z,13.18
2022-12-18T14:20:26.609Z,13.13
2022-12-18T14:22:53.063Z,14.05
2022-12-18T14:25:25.074Z,13.00
2022-12-18T14:28:16.159Z,13.53
2022-12-18T14:30:45.068Z,14.68
2022-12-18T14:33:15.104Z,12.93
2022-12-18T14:35:44.442Z,14.95
2022-12-18T14:38:16.868Z,13.95
2022-12-18T14:40:44.390Z,13.23
2022-12-18T14:43:11.932Z,13.82
2022-12-18T14:45:43.579Z,16.05
2022-12-18T14:48:36.687Z,12.82
2022-12-18T14:51:05.212Z,17.02
2022-12-18T14:53:43.059Z,14.70
2022-12-18T14:56:35.934Z,15.88
2022-12-18T14:59:05.964Z,15.68
2022-12-18T15:01:40.125Z,14.60
2022-12-18T15:04:25.915Z,12.85
2022-12-18T15:07:23.274Z,13.63
2022-12-18T15:10:12.548Z,15.30
2022-12-18T15:12:50.578Z,19.77
2022-12-18T15:15:41.345Z,14.82
2022-12-18T15:18:13.765Z,17.48
2022-12-18T15:21:09.251Z,15.47
2022-12-18T15:23:53.024Z,17.20
2022-12-18T15:26:22.289Z,13.98
2022-12-18T15:28:58.539Z,13.27
2022-12-18T15:31:31.012Z,17.00
2022-12-18T15:33:57.664Z,15.37
2022-12-18T15:36:26.329Z,14.63
2022-12-18T15:38:55.493Z,14.80
2022-12-18T15:41:35.200Z,14.50
2022-12-18T15:44:02.629Z,16.10
2022-12-18T15:46:31.591Z,15.43
2022-12-18T15:49:02.354Z,18.05
2022-12-18T15:51:37.037Z,16.73
2022-12-18T15:54:07.056Z,16.25
2022-12-18T15:56:52.488Z,15.00
2022-12-18T15:59:20.998Z,15.67
2022-12-18T16:01:50.092Z,22.98
2022-12-18T16:04:20.977Z,18.52
2022-12-18T16:09:34.414Z,15.57
2022-12-18T16:12:01.004Z,16.40
2022-12-18T16:14:30.290Z,19.42
2022-12-18T16:16:59.983Z,16.25
2022-12-18T16:19:27.120Z,19.80
2022-12-18T16:21:56.461Z,18.05
2022-12-18T16:24:25.887Z,17.73
2022-12-18T16:26:53.657Z,18.83
2022-12-18T16:29:25.892Z,15.27
2022-12-18T16:31:52.525Z,20.77
2022-12-18T16:34:24.942Z,16.25
2022-12-18T16:36:55.570Z,17.20
2022-12-18T16:39:24.656Z,24.40
2022-12-18T16:41:51.766Z,17.52
2022-12-18T16:44:18.422Z,21.60
2022-12-18T16:46:46.365Z,19.30
2022-12-18T16:49:17.453Z,19.53
2022-12-18T16:51:44.765Z,19.65
2022-12-18T16:54:15.939Z,20.77
2022-12-18T16:56:45.381Z,22.20
2022-12-18T16:59:12.791Z,18.48
2022-12-18T17:01:39.567Z,18.37
2022-12-18T17:04:06.972Z,18.77
2022-12-18T17:06:36.161Z,21.48
2022-12-18T17:09:09.463Z,26.98
2022-12-18T17:11:36.181Z,19.70
2022-12-18T17:14:15.652Z,18.23
2022-12-18T17:16:42.619Z,21.92
2022-12-18T17:19:15.198Z,19.42
2022-12-18T17:21:45.070Z,17.58
2022-12-18T17:24:11.679Z,22.27
2022-12-18T17:26:38.309Z,16.30
2022-12-18T17:29:05.309Z,20.77
2022-12-18T17:31:32.326Z,19.02
2022-12-18T17:33:59.251Z,19.52
2022-12-18T17:36:29.157Z,25.02
2022-12-18T17:38:57.815Z,19.87
2022-12-18T17:41:24.835Z,29.50
2022-12-18T17:43:52.939Z,16.92
2022-12-18T17:46:20.097Z,16.75
2022-12-18T17:48:47.131Z,19.83
2022-12-18T17:51:14.729Z,19.10
2022-12-18T17:53:41.926Z,21.30
2022-12-18T17:56:12.672Z,19.02
2022-12-18T17:58:40.124Z,20.17
2022-12-18T18:01:07.505Z,21.15
2022-12-18T18:03:37.467Z,17.90
2022-12-18T18:06:05.150Z,22.65
2022-12-18T18:08:34.636Z,18.70
2022-12-18T18:11:28.143Z,19.85
2022-12-18T18:14:04.598Z,19.70
2022-12-18T18:16:39.151Z,26.87
2022-12-18T18:19:08.207Z,21.38
2022-12-18T18:21:37.687Z,17.40
2022-12-18T18:24:05.434Z,18.83
2022-12-18T18:26:33.358Z,24.98
2022-12-18T18:29:01.071Z,19.57
2022-12-18T18:31:31.210Z,20.60
2022-12-18T18:33:58.086Z,23.55
2022-12-18T18:36:24.707Z,20.55
2022-12-18T18:38:51.713Z,25.60
2022-12-18T18:41:19.668Z,27.00
2022-12-18T18:43:46.320Z,22.63
2022-12-18T18:46:15.070Z,16.92
2022-12-18T18:48:42.997Z,16.70
2022-12-18T18:51:16.539Z,18.73
2022-12-18T18:53:50.422Z,19.00
2022-12-18T18:56:56.667Z,19.85
2022-12-18T18:59:06.343Z,18.45
2022-12-18T19:01:38.640Z,21.27
2022-12-18T19:04:05.350Z,21.55
2022-12-18T19:06:31.823Z,20.80
2022-12-18T19:09:00.812Z,20.35
2022-12-18T19:11:46.210Z,19.70
2022-12-18T19:14:14.819Z,21.60
2022-12-18T19:16:42.036Z,21.50
2022-12-18T19:19:09.407Z,25.27
2022-12-18T19:21:37.307Z,19.80
2022-12-18T19:24:04.605Z,22.42
2022-12-18T19:26:31.021Z,20.40
2022-12-18T19:29:06.092Z,20.65
2022-12-18T19:31:36.094Z,22.07
2022-12-18T19:34:03.984Z,22.10
2022-12-18T19:36:32.794Z,19.17
2022-12-18T19:39:01.697Z,24.80
2022-12-18T19:41:31.192Z,22.83
2022-12-18T19:43:59.722Z,17.93
2022-12-18T19:46:26.319Z,17.50
2022-12-18T19:48:53.065Z,18.52
2022-12-18T19:51:23.105Z,21.23
2022-12-18T19:53:53.669Z,20.38
2022-12-18T19:56:26.793Z,24.03
2022-12-18T19:58:54.609Z,21.20
2022-12-18T20:01:23.020Z,20.33
2022-12-18T20:03:52.384Z,21.73
2022-12-18T20:06:26.272Z,21.35
2022-12-18T20:08:54.030Z,20.90
2022-12-18T20:11:26.850Z,25.42
2022-12-18T20:13:53.278Z,22.33
2022-12-18T20:16:19.915Z,20.65
2022-12-18T20:18:46.431Z,23.98
2022-12-18T20:21:14.193Z,24.40
2022-12-18T20:23:41.257Z,21.98
2022-12-18T20:26:08.765Z,24.13
2022-12-18T20:28:35.818Z,22.38
2022-12-18T20:31:06.403Z,20.98
2022-12-18T20:33:33.264Z,20.03
2022-12-18T20:36:02.292Z,21.08
2022-12-18T20:38:30.293Z,22.40
2022-12-18T20:40:58.085Z,26.17
2022-12-18T20:43:24.842Z,20.63
2022-12-18T20:45:51.340Z,20.90
2022-12-18T20:48:20.089Z,23.73
2022-12-18T20:51:02.059Z,21.45
2022-12-18T20:53:30.455Z,24.80
2022-12-18T20:55:56.844Z,21.70
2022-12-18T20:58:23.865Z,28.43
2022-12-18T21:00:51.104Z,29.35
2022-12-18T21:03:18.871Z,26.60
2022-12-18T21:05:45.404Z,23.67
2022-12-18T21:08:11.907Z,25.02
2022-12-18T21:10:42.409Z,25.40
2022-12-18T21:13:09.543Z,23.90
2022-12-18T21:15:37.745Z,21.00
2022-12-18T21:18:04.456Z,27.08
2022-12-18T21:20:31.271Z,25.05
2022-12-18T21:23:08.563Z,24.57
2022-12-18T21:25:42.816Z,24.83
2022-12-18T21:28:09.266Z,25.40
2022-12-18T21:30:35.725Z,24.98
2022-12-18T21:33:02.184Z,27.02
2022-12-18T21:35:28.625Z,27.17
2022-12-18T21:37:58.503Z,28.65
2022-12-18T21:40:25.069Z,23.63
2022-12-18T21:43:10.239Z,27.20
2022-12-18T21:45:39.659Z,24.23
2022-12-18T21:48:06.231Z,26.40
2022-12-18T21:50:32.634Z,25.95
2022-12-18T21:52:59.008Z,24.55
2022-12-18T21:55:25.633Z,25.33
2022-12-18T21:57:53.728Z,24.23
2022-12-18T22:00:20.213Z,25.60
2022-12-18T22:02:48.344Z,21.63
2022-12-18T22:05:34.396Z,22.55
2022-12-18T22:08:01.484Z,24.90
2022-12-18T22:10:27.868Z,27.38
2022-12-18T22:12:55.113Z,21.97
2022-12-18T22:15:22.035Z,23.85
2022-12-18T22:17:59.818Z,23.33
2022-12-18T22:20:27.147Z,27.20
2022-12-18T22:22:53.699Z,25.08
2022-12-18T22:25:20.136Z,22.50
2022-12-18T22:28:06.778Z,25.05
2022-12-18T22:30:33.551Z,27.35
2022-12-18T22:33:00.249Z,24.27
2022-12-18T22:35:26.729Z,22.00
2022-12-18T22:37:53.207Z,21.40
2022-12-18T22:40:27.261Z,24.63
2022-12-18T22:42:54.512Z,26.70
2022-12-18T22:45:26.040Z,23.98
2022-12-18T22:47:52.480Z,26.30
2022-12-18T22:50:18.921Z,28.10
2022-12-18T22:52:45.391Z,25.67
2022-12-18T22:55:11.831Z,26.90
2022-12-18T22:57:39.572Z,24.15
2022-12-18T23:00:09.579Z,26.17
2022-12-18T23:02:36.235Z,28.53
2022-12-18T23:05:03.044Z,27.33
2022-12-18T23:07:29.631Z,23.02
2022-12-18T23:10:01.108Z,25.42
2022-12-18T23:12:28.048Z,27.80
2022-12-18T23:14:54.576Z,26.80
2022-12-18T23:17:20.958Z,27.80
2022-12-18T23:19:49.381Z,24.50
2022-12-18T23:22:17.221Z,25.92
2022-12-18T23:24:43.608Z,23.20
2022-12-18T23:27:11.928Z,27.63
2022-12-18T23:29:39.444Z,24.80
2022-12-18T23:32:05.916Z,26.38
2022-12-18T23:34:32.662Z,28.52
2022-12-18T23:36:59.151Z,27.80
2022-12-18T23:39:30.068Z,25.07
2022-12-18T23:42:00.686Z,27.00
2022-12-18T23:44:27.488Z,26.88
2022-12-18T23:46:54.112Z,27.60
2022-12-18T23:49:20.637Z,24.45
2022-12-18T23:51:47.109Z,24.63
2022-12-18T23:54:13.642Z,24.02
2022-12-18T23:56:40.055Z,29.15
2022-12-18T23:59:06.529Z,28.17
